sensor_id;sensor_type;location;lat;lon;timestamp;P1;durP1;ratioP1;P2;durP2;ratioP2
8476;SDS011;4275;42.854;23.222;2022-07-21T00:01:57;20.58;;;19.27;;
8476;SDS011;4275;42.854;23.222;2022-07-21T00:04:24;20.25;;;19.05;;
8476;SDS011;4275;42.854;23.222;2022-07-21T00:06:51;20.88;;;19.58;;
8476;SDS011;4275;42.854;23.222;2022-07-21T00:09:20;20.67;;;19.38;;
8476;SDS011;4275;42.854;23.222;2022-07-21T00:11:47;21.10;;;19.80;;
8476;SDS011;4275;42.854;23.222;2022-07-21T00:14:14;20.50;;;19.27;;
8476;SDS011;4275;42.854;23.222;2022-07-21T00:16:41;20.40;;;19.20;;
8476;SDS011;4275;42.854;23.222;2022-07-21T00:19:09;20.98;;;19.67;;
8476;SDS011;4275;42.854;23.222;2022-07-21T00:21:36;20.58;;;19.27;;
8476;SDS011;4275;42.854;23.222;2022-07-21T00:24:03;20.23;;;19.02;;
8476;SDS011;4275;42.854;23.222;2022-07-21T00:26:32;20.67;;;19.38;;
8476;SDS011;4275;42.854;23.222;2022-07-21T00:28:59;20.55;;;19.35;;
8476;SDS011;4275;42.854;23.222;2022-07-21T00:31:26;20.70;;;19.40;;
8476;SDS011;4275;42.854;23.222;2022-07-21T00:33:53;21.45;;;20.15;;
8476;SDS011;4275;42.854;23.222;2022-07-21T00:36:21;20.98;;;19.67;;
8476;SDS011;4275;42.854;23.222;2022-07-21T00:38:48;21.00;;;19.70;;
8476;SDS011;4275;42.854;23.222;2022-07-21T00:41:15;20.50;;;19.30;;
8476;SDS011;4275;42.854;23.222;2022-07-21T00:43:44;20.42;;;19.23;;
8476;SDS011;4275;42.854;23.222;2022-07-21T00:46:11;20.23;;;19.02;;
8476;SDS011;4275;42.854;23.222;2022-07-21T00:48:38;21.10;;;19.80;;
8476;SDS011;4275;42.854;23.222;2022-07-21T00:51:05;20.70;;;19.40;;
8476;SDS011;4275;42.854;23.222;2022-07-21T00:53:32;21.65;;;20.35;;
8476;SDS011;4275;42.854;23.222;2022-07-21T00:55:59;21.60;;;20.30;;
8476;SDS011;4275;42.854;23.222;2022-07-21T00:58:27;20.50;;;19.30;;
8476;SDS011;4275;42.854;23.222;2022-07-21T01:00:55;21.40;;;20.10;;
8476;SDS011;4275;42.854;23.222;2022-07-21T01:03:22;20.13;;;18.92;;
8476;SDS011;4275;42.854;23.222;2022-07-21T01:05:49;19.75;;;18.65;;
8476;SDS011;4275;42.854;23.222;2022-07-21T01:08:17;20.05;;;18.85;;
8476;SDS011;4275;42.854;23.222;2022-07-21T01:10:44;20.98;;;19.70;;
8476;SDS011;4275;42.854;23.222;2022-07-21T01:13:11;20.60;;;19.40;;
8476;SDS011;4275;42.854;23.222;2022-07-21T01:15:38;20.48;;;19.27;;
8476;SDS011;4275;42.854;23.222;2022-07-21T01:18:07;20.40;;;19.20;;
8476;SDS011;4275;42.854;23.222;2022-07-21T01:20:35;20.05;;;18.85;;
8476;SDS011;4275;42.854;23.222;2022-07-21T01:23:06;20.48;;;19.27;;
8476;SDS011;4275;42.854;23.222;2022-07-21T01:25:33;20.60;;;19.40;;
8476;SDS011;4275;42.854;23.222;2022-07-21T01:28:00;19.63;;;18.50;;
8476;SDS011;4275;42.854;23.222;2022-07-21T01:30:27;19.60;;;18.40;;
8476;SDS011;4275;42.854;23.222;2022-07-21T01:32:54;19.70;;;18.50;;
8476;SDS011;4275;42.854;23.222;2022-07-21T01:35:21;19.55;;;18.45;;
8476;SDS011;4275;42.854;23.222;2022-07-21T01:37:48;20.05;;;18.85;;
8476;SDS011;4275;42.854;23.222;2022-07-21T01:40:17;19.80;;;18.60;;
8476;SDS011;4275;42.854;23.222;2022-07-21T01:43:02;20.15;;;18.95;;
8476;SDS011;4275;42.854;23.222;2022-07-21T01:45:30;20.00;;;18.80;;
8476;SDS011;4275;42.854;23.222;2022-07-21T01:47:57;19.95;;;18.75;;
8476;SDS011;4275;42.854;23.222;2022-07-21T01:50:24;19.65;;;18.55;;
8476;SDS011;4275;42.854;23.222;2022-07-21T01:52:53;19.88;;;18.70;;
8476;SDS011;4275;42.854;23.222;2022-07-21T01:55:23;19.70;;;18.60;;
8476;SDS011;4275;42.854;23.222;2022-07-21T01:57:51;18.77;;;17.77;;
8476;SDS011;4275;42.854;23.222;2022-07-21T02:00:18;19.15;;;18.05;;
8476;SDS011;4275;42.854;23.222;2022-07-21T02:02:46;18.92;;;17.83;;
8476;SDS011;4275;42.854;23.222;2022-07-21T02:05:13;18.80;;;17.70;;
8476;SDS011;4275;42.854;23.222;2022-07-21T02:07:40;19.13;;;18.02;;
8476;SDS011;4275;42.854;23.222;2022-07-21T02:10:08;19.00;;;17.90;;
8476;SDS011;4275;42.854;23.222;2022-07-21T02:12:36;18.80;;;17.70;;
8476;SDS011;4275;42.854;23.222;2022-07-21T02:15:04;18.45;;;17.45;;
8476;SDS011;4275;42.854;23.222;2022-07-21T02:17:32;18.42;;;17.42;;
8476;SDS011;4275;42.854;23.222;2022-07-21T02:19:59;18.13;;;17.13;;
8476;SDS011;4275;42.854;23.222;2022-07-21T02:22:26;18.70;;;17.70;;
8476;SDS011;4275;42.854;23.222;2022-07-21T02:24:53;18.60;;;17.60;;
8476;SDS011;4275;42.854;23.222;2022-07-21T02:27:20;18.15;;;17.15;;
8476;SDS011;4275;42.854;23.222;2022-07-21T02:29:48;17.85;;;16.85;;
8476;SDS011;4275;42.854;23.222;2022-07-21T02:32:15;18.13;;;17.13;;
8476;SDS011;4275;42.854;23.222;2022-07-21T02:34:42;18.33;;;17.33;;
8476;SDS011;4275;42.854;23.222;2022-07-21T02:37:09;18.10;;;17.10;;
8476;SDS011;4275;42.854;23.222;2022-07-21T02:39:36;17.60;;;16.70;;
8476;SDS011;4275;42.854;23.222;2022-07-21T02:42:04;17.60;;;16.70;;
8476;SDS011;4275;42.854;23.222;2022-07-21T02:44:31;17.77;;;16.77;;
8476;SDS011;4275;42.854;23.222;2022-07-21T02:46:59;17.55;;;16.65;;
8476;SDS011;4275;42.854;23.222;2022-07-21T02:49:26;17.45;;;16.55;;
8476;SDS011;4275;42.854;23.222;2022-07-21T02:51:53;17.42;;;16.52;;
8476;SDS011;4275;42.854;23.222;2022-07-21T02:54:20;17.63;;;16.73;;
8476;SDS011;4275;42.854;23.222;2022-07-21T02:56:47;17.58;;;16.67;;
8476;SDS011;4275;42.854;23.222;2022-07-21T02:59:14;17.45;;;16.55;;
8476;SDS011;4275;42.854;23.222;2022-07-21T03:01:42;17.13;;;16.23;;
8476;SDS011;4275;42.854;23.222;2022-07-21T03:04:10;17.00;;;16.10;;
8476;SDS011;4275;42.854;23.222;2022-07-21T03:06:37;17.00;;;16.10;;
8476;SDS011;4275;42.854;23.222;2022-07-21T03:09:05;17.60;;;16.70;;
8476;SDS011;4275;42.854;23.222;2022-07-21T03:11:32;17.73;;;16.80;;
8476;SDS011;4275;42.854;23.222;2022-07-21T03:13:59;17.60;;;16.60;;
8476;SDS011;4275;42.854;23.222;2022-07-21T03:16:26;17.27;;;16.38;;
8476;SDS011;4275;42.854;23.222;2022-07-21T03:18:53;17.67;;;16.67;;
8476;SDS011;4275;42.854;23.222;2022-07-21T03:21:21;17.30;;;16.40;;
8476;SDS011;4275;42.854;23.222;2022-07-21T03:23:48;17.10;;;16.20;;
8476;SDS011;4275;42.854;23.222;2022-07-21T03:26:15;16.88;;;15.98;;
8476;SDS011;4275;42.854;23.222;2022-07-21T03:28:43;17.02;;;16.13;;
8476;SDS011;4275;42.854;23.222;2022-07-21T03:31:11;17.00;;;16.10;;
8476;SDS011;4275;42.854;23.222;2022-07-21T03:33:38;16.63;;;15.82;;
8476;SDS011;4275;42.854;23.222;2022-07-21T03:36:05;16.80;;;16.00;;
8476;SDS011;4275;42.854;23.222;2022-07-21T03:38:35;16.55;;;15.75;;
8476;SDS011;4275;42.854;23.222;2022-07-21T03:41:02;16.90;;;16.10;;
8476;SDS011;4275;42.854;23.222;2022-07-21T03:43:29;16.77;;;15.98;;
8476;SDS011;4275;42.854;23.222;2022-07-21T03:45:56;16.70;;;15.85;;
8476;SDS011;4275;42.854;23.222;2022-07-21T03:48:24;16.85;;;16.00;;
8476;SDS011;4275;42.854;23.222;2022-07-21T03:50:51;17.38;;;16.48;;
8476;SDS011;4275;42.854;23.222;2022-07-21T03:53:18;17.38;;;16.48;;
8476;SDS011;4275;42.854;23.222;2022-07-21T03:55:46;18.80;;;17.80;;
8476;SDS011;4275;42.854;23.222;2022-07-21T03:58:13;18.60;;;17.60;;
8476;SDS011;4275;42.854;23.222;2022-07-21T04:00:41;19.55;;;18.35;;
8476;SDS011;4275;42.854;23.222;2022-07-21T04:03:10;18.95;;;17.75;;
8476;SDS011;4275;42.854;23.222;2022-07-21T04:05:38;19.17;;;18.00;;
8476;SDS011;4275;42.854;23.222;2022-07-21T04:08:07;19.30;;;18.10;;
8476;SDS011;4275;42.854;23.222;2022-07-21T04:10:35;19.27;;;18.08;;
8476;SDS011;4275;42.854;23.222;2022-07-21T04:13:05;19.77;;;18.48;;
8476;SDS011;4275;42.854;23.222;2022-07-21T04:15:33;19.55;;;18.25;;
8476;SDS011;4275;42.854;23.222;2022-07-21T04:18:00;19.70;;;18.42;;
8476;SDS011;4275;42.854;23.222;2022-07-21T04:20:28;19.67;;;18.38;;
8476;SDS011;4275;42.854;23.222;2022-07-21T04:22:55;19.40;;;18.15;;
8476;SDS011;4275;42.854;23.222;2022-07-21T04:25:22;19.80;;;18.50;;
8476;SDS011;4275;42.854;23.222;2022-07-21T04:27:50;20.02;;;18.73;;
8476;SDS011;4275;42.854;23.222;2022-07-21T04:30:19;20.25;;;18.85;;
8476;SDS011;4275;42.854;23.222;2022-07-21T04:32:48;20.65;;;19.25;;
8476;SDS011;4275;42.854;23.222;2022-07-21T04:35:15;20.20;;;18.80;;
8476;SDS011;4275;42.854;23.222;2022-07-21T04:37:43;20.83;;;19.42;;
8476;SDS011;4275;42.854;23.222;2022-07-21T04:40:11;20.38;;;19.08;;
8476;SDS011;4275;42.854;23.222;2022-07-21T04:42:40;20.35;;;19.05;;
8476;SDS011;4275;42.854;23.222;2022-07-21T04:45:08;20.25;;;18.95;;
8476;SDS011;4275;42.854;23.222;2022-07-21T04:47:44;20.38;;;19.08;;
8476;SDS011;4275;42.854;23.222;2022-07-21T04:50:12;20.60;;;19.20;;
8476;SDS011;4275;42.854;23.222;2022-07-21T04:52:40;20.50;;;19.10;;
8476;SDS011;4275;42.854;23.222;2022-07-21T04:55:07;20.60;;;19.20;;
8476;SDS011;4275;42.854;23.222;2022-07-21T04:57:38;20.75;;;19.35;;
8476;SDS011;4275;42.854;23.222;2022-07-21T05:00:07;20.50;;;19.13;;
8476;SDS011;4275;42.854;23.222;2022-07-21T05:02:36;20.25;;;18.95;;
8476;SDS011;4275;42.854;23.222;2022-07-21T05:05:06;20.38;;;18.98;;
8476;SDS011;4275;42.854;23.222;2022-07-21T05:07:34;20.33;;;18.92;;
8476;SDS011;4275;42.854;23.222;2022-07-21T05:10:03;20.30;;;19.00;;
8476;SDS011;4275;42.854;23.222;2022-07-21T05:12:30;20.52;;;19.13;;
8476;SDS011;4275;42.854;23.222;2022-07-21T05:14:57;20.48;;;19.08;;
8476;SDS011;4275;42.854;23.222;2022-07-21T05:17:25;20.67;;;19.38;;
8476;SDS011;4275;42.854;23.222;2022-07-21T05:19:52;20.23;;;18.92;;
8476;SDS011;4275;42.854;23.222;2022-07-21T05:22:20;20.20;;;18.90;;
8476;SDS011;4275;42.854;23.222;2022-07-21T05:24:47;20.15;;;18.88;;
8476;SDS011;4275;42.854;23.222;2022-07-21T05:27:14;19.98;;;18.77;;
8476;SDS011;4275;42.854;23.222;2022-07-21T05:29:41;20.17;;;18.88;;
8476;SDS011;4275;42.854;23.222;2022-07-21T05:32:08;20.08;;;18.77;;
8476;SDS011;4275;42.854;23.222;2022-07-21T05:34:35;20.05;;;18.75;;
8476;SDS011;4275;42.854;23.222;2022-07-21T05:37:02;20.38;;;19.08;;
8476;SDS011;4275;42.854;23.222;2022-07-21T05:39:31;20.50;;;19.10;;
8476;SDS011;4275;42.854;23.222;2022-07-21T05:41:58;20.13;;;18.83;;
8476;SDS011;4275;42.854;23.222;2022-07-21T05:44:25;20.25;;;18.95;;
8476;SDS011;4275;42.854;23.222;2022-07-21T05:46:52;20.00;;;18.70;;
8476;SDS011;4275;42.854;23.222;2022-07-21T05:49:19;19.80;;;18.50;;
8476;SDS011;4275;42.854;23.222;2022-07-21T05:51:46;20.08;;;18.77;;
8476;SDS011;4275;42.854;23.222;2022-07-21T05:54:13;20.20;;;18.90;;
8476;SDS011;4275;42.854;23.222;2022-07-21T05:56:41;20.20;;;18.90;;
8476;SDS011;4275;42.854;23.222;2022-07-21T05:59:08;19.90;;;18.67;;
8476;SDS011;4275;42.854;23.222;2022-07-21T06:01:35;20.10;;;18.80;;
8476;SDS011;4275;42.854;23.222;2022-07-21T06:04:03;20.08;;;18.77;;
8476;SDS011;4275;42.854;23.222;2022-07-21T06:06:30;20.20;;;18.90;;
8476;SDS011;4275;42.854;23.222;2022-07-21T06:08:57;19.88;;;18.58;;
8476;SDS011;4275;42.854;23.222;2022-07-21T06:11:24;19.75;;;18.45;;
8476;SDS011;4275;42.854;23.222;2022-07-21T06:13:54;19.70;;;18.40;;
8476;SDS011;4275;42.854;23.222;2022-07-21T06:16:21;20.50;;;19.20;;
8476;SDS011;4275;42.854;23.222;2022-07-21T06:18:48;20.00;;;18.70;;
8476;SDS011;4275;42.854;23.222;2022-07-21T06:21:15;20.10;;;18.80;;
8476;SDS011;4275;42.854;23.222;2022-07-21T06:23:43;19.77;;;18.48;;
8476;SDS011;4275;42.854;23.222;2022-07-21T06:26:10;20.58;;;19.27;;
8476;SDS011;4275;42.854;23.222;2022-07-21T06:28:37;19.98;;;18.67;;
8476;SDS011;4275;42.854;23.222;2022-07-21T06:31:05;30.92;;;28.73;;
8476;SDS011;4275;42.854;23.222;2022-07-21T06:33:33;21.30;;;19.90;;
8476;SDS011;4275;42.854;23.222;2022-07-21T06:35:59;20.05;;;18.75;;
8476;SDS011;4275;42.854;23.222;2022-07-21T06:38:27;20.05;;;18.75;;
8476;SDS011;4275;42.854;23.222;2022-07-21T06:40:54;19.80;;;18.58;;
8476;SDS011;4275;42.854;23.222;2022-07-21T06:43:21;20.05;;;18.75;;
8476;SDS011;4275;42.854;23.222;2022-07-21T06:45:48;19.95;;;18.75;;
8476;SDS011;4275;42.854;23.222;2022-07-21T06:48:17;19.85;;;18.65;;
8476;SDS011;4275;42.854;23.222;2022-07-21T06:50:44;19.98;;;18.67;;
8476;SDS011;4275;42.854;23.222;2022-07-21T06:53:11;20.25;;;18.95;;
8476;SDS011;4275;42.854;23.222;2022-07-21T06:55:38;22.85;;;21.35;;
8476;SDS011;4275;42.854;23.222;2022-07-21T06:58:10;20.20;;;18.90;;
8476;SDS011;4275;42.854;23.222;2022-07-21T07:00:38;19.98;;;18.77;;
8476;SDS011;4275;42.854;23.222;2022-07-21T07:03:05;19.52;;;18.33;;
8476;SDS011;4275;42.854;23.222;2022-07-21T07:05:34;20.25;;;19.05;;
8476;SDS011;4275;42.854;23.222;2022-07-21T07:08:01;20.10;;;18.88;;
8476;SDS011;4275;42.854;23.222;2022-07-21T07:10:29;20.23;;;18.92;;
8476;SDS011;4275;42.854;23.222;2022-07-21T07:12:56;19.75;;;18.55;;
8476;SDS011;4275;42.854;23.222;2022-07-21T07:15:24;19.70;;;18.50;;
8476;SDS011;4275;42.854;23.222;2022-07-21T07:17:51;20.10;;;18.80;;
8476;SDS011;4275;42.854;23.222;2022-07-21T07:20:19;20.33;;;19.02;;
8476;SDS011;4275;42.854;23.222;2022-07-21T07:22:48;20.27;;;18.98;;
8476;SDS011;4275;42.854;23.222;2022-07-21T07:25:15;19.75;;;18.55;;
8476;SDS011;4275;42.854;23.222;2022-07-21T07:27:43;20.50;;;19.20;;
8476;SDS011;4275;42.854;23.222;2022-07-21T07:30:10;19.48;;;18.27;;
8476;SDS011;4275;42.854;23.222;2022-07-21T07:32:38;19.98;;;18.77;;
8476;SDS011;4275;42.854;23.222;2022-07-21T07:35:07;19.92;;;18.73;;
8476;SDS011;4275;42.854;23.222;2022-07-21T07:37:35;19.90;;;18.70;;
8476;SDS011;4275;42.854;23.222;2022-07-21T07:40:05;19.38;;;18.17;;
8476;SDS011;4275;42.854;23.222;2022-07-21T07:42:35;19.92;;;18.73;;
8476;SDS011;4275;42.854;23.222;2022-07-21T07:45:04;20.73;;;19.42;;
8476;SDS011;4275;42.854;23.222;2022-07-21T07:47:32;20.00;;;18.80;;
8476;SDS011;4275;42.854;23.222;2022-07-21T07:49:59;20.30;;;19.10;;
8476;SDS011;4275;42.854;23.222;2022-07-21T07:52:27;20.30;;;19.10;;
8476;SDS011;4275;42.854;23.222;2022-07-21T07:54:54;19.70;;;18.50;;
8476;SDS011;4275;42.854;23.222;2022-07-21T07:57:23;19.30;;;18.10;;
8476;SDS011;4275;42.854;23.222;2022-07-21T07:59:50;20.17;;;18.98;;
8476;SDS011;4275;42.854;23.222;2022-07-21T08:02:17;20.23;;;18.98;;
8476;SDS011;4275;42.854;23.222;2022-07-21T08:04:44;20.48;;;19.25;;
8476;SDS011;4275;42.854;23.222;2022-07-21T08:07:11;20.40;;;19.15;;
8476;SDS011;4275;42.854;23.222;2022-07-21T08:09:38;21.30;;;20.00;;
8476;SDS011;4275;42.854;23.222;2022-07-21T08:12:06;20.75;;;19.45;;
8476;SDS011;4275;42.854;23.222;2022-07-21T08:14:35;21.42;;;20.02;;
8476;SDS011;4275;42.854;23.222;2022-07-21T08:17:02;20.23;;;18.95;;
8476;SDS011;4275;42.854;23.222;2022-07-21T08:19:29;20.30;;;19.10;;
8476;SDS011;4275;42.854;23.222;2022-07-21T08:21:56;21.42;;;20.13;;
8476;SDS011;4275;42.854;23.222;2022-07-21T08:24:23;21.92;;;20.52;;
8476;SDS011;4275;42.854;23.222;2022-07-21T08:26:50;21.90;;;20.60;;
8476;SDS011;4275;42.854;23.222;2022-07-21T08:29:17;20.38;;;19.10;;
8476;SDS011;4275;42.854;23.222;2022-07-21T08:31:46;20.45;;;19.15;;
8476;SDS011;4275;42.854;23.222;2022-07-21T08:34:13;21.42;;;20.02;;
8476;SDS011;4275;42.854;23.222;2022-07-21T08:36:40;21.20;;;19.90;;
8476;SDS011;4275;42.854;23.222;2022-07-21T08:39:07;21.38;;;20.08;;
8476;SDS011;4275;42.854;23.222;2022-07-21T08:41:34;21.73;;;20.33;;
8476;SDS011;4275;42.854;23.222;2022-07-21T08:44:02;21.85;;;20.55;;
8476;SDS011;4275;42.854;23.222;2022-07-21T08:46:29;21.48;;;20.17;;
8476;SDS011;4275;42.854;23.222;2022-07-21T08:48:59;21.45;;;20.15;;
8476;SDS011;4275;42.854;23.222;2022-07-21T08:51:30;21.50;;;20.15;;
8476;SDS011;4275;42.854;23.222;2022-07-21T08:53:58;21.63;;;20.33;;
8476;SDS011;4275;42.854;23.222;2022-07-21T08:56:25;21.02;;;19.70;;
8476;SDS011;4275;42.854;23.222;2022-07-21T08:58:52;20.92;;;19.63;;
8476;SDS011;4275;42.854;23.222;2022-07-21T09:01:19;20.70;;;19.40;;
8476;SDS011;4275;42.854;23.222;2022-07-21T09:03:49;21.70;;;20.33;;
8476;SDS011;4275;42.854;23.222;2022-07-21T09:06:17;21.58;;;20.17;;
8476;SDS011;4275;42.854;23.222;2022-07-21T09:08:47;20.33;;;19.02;;
8476;SDS011;4275;42.854;23.222;2022-07-21T09:11:16;20.90;;;19.52;;
8476;SDS011;4275;42.854;23.222;2022-07-21T09:13:45;21.25;;;19.85;;
8476;SDS011;4275;42.854;23.222;2022-07-21T09:16:33;21.33;;;19.92;;
8476;SDS011;4275;42.854;23.222;2022-07-21T09:19:01;21.50;;;20.10;;
8476;SDS011;4275;42.854;23.222;2022-07-21T09:21:30;21.50;;;20.10;;
8476;SDS011;4275;42.854;23.222;2022-07-21T09:24:11;21.40;;;20.00;;
8476;SDS011;4275;42.854;23.222;2022-07-21T09:27:02;20.70;;;19.40;;
8476;SDS011;4275;42.854;23.222;2022-07-21T09:29:35;21.15;;;19.85;;
8476;SDS011;4275;42.854;23.222;2022-07-21T09:32:17;21.98;;;20.58;;
8476;SDS011;4275;42.854;23.222;2022-07-21T09:34:47;21.38;;;19.98;;
8476;SDS011;4275;42.854;23.222;2022-07-21T09:37:16;21.75;;;20.35;;
8476;SDS011;4275;42.854;23.222;2022-07-21T09:39:46;21.98;;;20.67;;
8476;SDS011;4275;42.854;23.222;2022-07-21T09:42:16;22.02;;;20.63;;
8476;SDS011;4275;42.854;23.222;2022-07-21T09:44:45;22.40;;;20.95;;
8476;SDS011;4275;42.854;23.222;2022-07-21T09:47:14;22.08;;;20.67;;
8476;SDS011;4275;42.854;23.222;2022-07-21T09:49:42;21.58;;;20.17;;
8476;SDS011;4275;42.854;23.222;2022-07-21T09:52:25;22.33;;;20.92;;
8476;SDS011;4275;42.854;23.222;2022-07-21T09:54:56;22.52;;;21.13;;
8476;SDS011;4275;42.854;23.222;2022-07-21T09:57:24;22.08;;;20.67;;
8476;SDS011;4275;42.854;23.222;2022-07-21T09:59:52;22.10;;;20.70;;
8476;SDS011;4275;42.854;23.222;2022-07-21T10:02:20;21.98;;;20.63;;
8476;SDS011;4275;42.854;23.222;2022-07-21T10:04:51;22.20;;;20.80;;
8476;SDS011;4275;42.854;23.222;2022-07-21T10:07:23;22.25;;;20.85;;
8476;SDS011;4275;42.854;23.222;2022-07-21T10:09:52;22.23;;;20.83;;
8476;SDS011;4275;42.854;23.222;2022-07-21T10:12:19;22.98;;;21.58;;
8476;SDS011;4275;42.854;23.222;2022-07-21T10:14:47;21.92;;;20.63;;
8476;SDS011;4275;42.854;23.222;2022-07-21T10:17:15;22.80;;;21.30;;
8476;SDS011;4275;42.854;23.222;2022-07-21T10:19:45;26.08;;;24.45;;
8476;SDS011;4275;42.854;23.222;2022-07-21T10:22:22;21.88;;;20.48;;
8476;SDS011;4275;42.854;23.222;2022-07-21T10:24:57;21.60;;;20.20;;
8476;SDS011;4275;42.854;23.222;2022-07-21T10:27:25;22.08;;;20.67;;
8476;SDS011;4275;42.854;23.222;2022-07-21T10:29:53;22.13;;;20.73;;
8476;SDS011;4275;42.854;23.222;2022-07-21T10:32:21;21.35;;;19.95;;
8476;SDS011;4275;42.854;23.222;2022-07-21T10:34:51;21.15;;;19.85;;
8476;SDS011;4275;42.854;23.222;2022-07-21T10:46:03;20.88;;;19.58;;
8476;SDS011;4275;42.854;23.222;2022-07-21T10:49:04;21.90;;;20.50;;
8476;SDS011;4275;42.854;23.222;2022-07-21T10:51:33;21.60;;;20.20;;
8476;SDS011;4275;42.854;23.222;2022-07-21T11:02:49;22.27;;;20.88;;
8476;SDS011;4275;42.854;23.222;2022-07-21T11:05:18;22.33;;;20.92;;
8476;SDS011;4275;42.854;23.222;2022-07-21T11:10:41;24.00;;;22.50;;
8476;SDS011;4275;42.854;23.222;2022-07-21T11:13:09;21.83;;;20.52;;
8476;SDS011;4275;42.854;23.222;2022-07-21T11:15:42;22.08;;;20.67;;
8476;SDS011;4275;42.854;23.222;2022-07-21T11:18:17;23.10;;;21.70;;
8476;SDS011;4275;42.854;23.222;2022-07-21T11:23:38;21.85;;;20.45;;
8476;SDS011;4275;42.854;23.222;2022-07-21T11:26:08;22.48;;;21.08;;
8476;SDS011;4275;42.854;23.222;2022-07-21T11:28:36;21.80;;;20.40;;
8476;SDS011;4275;42.854;23.222;2022-07-21T11:31:07;21.98;;;20.58;;
8476;SDS011;4275;42.854;23.222;2022-07-21T11:33:35;21.88;;;20.48;;
8476;SDS011;4275;42.854;23.222;2022-07-21T11:36:03;21.40;;;20.08;;
8476;SDS011;4275;42.854;23.222;2022-07-21T11:38:31;22.48;;;21.08;;
8476;SDS011;4275;42.854;23.222;2022-07-21T11:41:16;22.05;;;20.65;;
8476;SDS011;4275;42.854;23.222;2022-07-21T11:43:46;22.42;;;20.98;;
8476;SDS011;4275;42.854;23.222;2022-07-21T11:46:13;23.45;;;21.95;;
8476;SDS011;4275;42.854;23.222;2022-07-21T11:48:40;22.25;;;20.85;;
8476;SDS011;4275;42.854;23.222;2022-07-21T11:51:07;22.90;;;21.40;;
8476;SDS011;4275;42.854;23.222;2022-07-21T11:53:35;21.77;;;20.38;;
8476;SDS011;4275;42.854;23.222;2022-07-21T11:56:12;23.20;;;21.80;;
8476;SDS011;4275;42.854;23.222;2022-07-21T11:58:42;21.70;;;20.30;;
8476;SDS011;4275;42.854;23.222;2022-07-21T12:01:09;23.17;;;21.67;;
8476;SDS011;4275;42.854;23.222;2022-07-21T12:03:46;21.42;;;20.02;;
8476;SDS011;4275;42.854;23.222;2022-07-21T12:06:14;20.45;;;19.15;;
8476;SDS011;4275;42.854;23.222;2022-07-21T12:08:42;20.85;;;19.55;;
8476;SDS011;4275;42.854;23.222;2022-07-21T12:11:10;22.02;;;20.63;;
8476;SDS011;4275;42.854;23.222;2022-07-21T12:13:55;23.00;;;21.50;;
8476;SDS011;4275;42.854;23.222;2022-07-21T12:16:24;22.67;;;21.27;;
8476;SDS011;4275;42.854;23.222;2022-07-21T12:21:46;21.92;;;20.52;;
8476;SDS011;4275;42.854;23.222;2022-07-21T12:24:16;21.52;;;20.13;;
8476;SDS011;4275;42.854;23.222;2022-07-21T12:26:44;21.50;;;20.10;;
8476;SDS011;4275;42.854;23.222;2022-07-21T12:29:25;22.65;;;21.15;;
8476;SDS011;4275;42.854;23.222;2022-07-21T12:31:53;22.13;;;20.63;;
8476;SDS011;4275;42.854;23.222;2022-07-21T12:34:20;21.80;;;20.40;;
8476;SDS011;4275;42.854;23.222;2022-07-21T12:36:49;21.30;;;19.90;;
8476;SDS011;4275;42.854;23.222;2022-07-21T12:39:17;21.65;;;20.25;;
8476;SDS011;4275;42.854;23.222;2022-07-21T12:42:04;20.63;;;19.23;;
8476;SDS011;4275;42.854;23.222;2022-07-21T12:44:34;21.40;;;20.00;;
8476;SDS011;4275;42.854;23.222;2022-07-21T12:47:15;21.35;;;19.95;;
8476;SDS011;4275;42.854;23.222;2022-07-21T12:49:53;21.25;;;19.85;;
8476;SDS011;4275;42.854;23.222;2022-07-21T12:52:22;20.88;;;19.48;;
8476;SDS011;4275;42.854;23.222;2022-07-21T12:54:49;21.15;;;19.65;;
8476;SDS011;4275;42.854;23.222;2022-07-21T12:57:16;19.50;;;18.30;;
8476;SDS011;4275;42.854;23.222;2022-07-21T12:59:45;20.33;;;19.02;;
8476;SDS011;4275;42.854;23.222;2022-07-21T13:02:12;20.23;;;18.92;;
8476;SDS011;4275;42.854;23.222;2022-07-21T13:04:39;20.38;;;19.08;;
8476;SDS011;4275;42.854;23.222;2022-07-21T13:07:06;19.88;;;18.67;;
8476;SDS011;4275;42.854;23.222;2022-07-21T13:09:33;20.30;;;19.00;;
8476;SDS011;4275;42.854;23.222;2022-07-21T13:12:00;20.00;;;18.70;;
8476;SDS011;4275;42.854;23.222;2022-07-21T13:14:27;20.08;;;18.88;;
8476;SDS011;4275;42.854;23.222;2022-07-21T13:16:56;20.90;;;19.60;;
8476;SDS011;4275;42.854;23.222;2022-07-21T13:19:23;20.40;;;19.10;;
8476;SDS011;4275;42.854;23.222;2022-07-21T13:21:50;20.17;;;18.98;;
8476;SDS011;4275;42.854;23.222;2022-07-21T13:24:18;20.25;;;19.05;;
8476;SDS011;4275;42.854;23.222;2022-07-21T13:26:45;20.20;;;18.90;;
8476;SDS011;4275;42.854;23.222;2022-07-21T13:29:12;20.17;;;18.98;;
8476;SDS011;4275;42.854;23.222;2022-07-21T13:31:39;20.73;;;19.42;;
8476;SDS011;4275;42.854;23.222;2022-07-21T13:34:08;20.08;;;18.80;;
8476;SDS011;4275;42.854;23.222;2022-07-21T13:36:35;20.45;;;19.15;;
8476;SDS011;4275;42.854;23.222;2022-07-21T13:39:03;20.58;;;19.27;;
8476;SDS011;4275;42.854;23.222;2022-07-21T13:41:31;20.52;;;19.23;;
8476;SDS011;4275;42.854;23.222;2022-07-21T13:43:59;20.75;;;19.52;;
8476;SDS011;4275;42.854;23.222;2022-07-21T13:46:27;20.27;;;18.98;;
8476;SDS011;4275;42.854;23.222;2022-07-21T13:48:54;20.63;;;19.35;;
8476;SDS011;4275;42.854;23.222;2022-07-21T13:51:22;20.52;;;19.23;;
8476;SDS011;4275;42.854;23.222;2022-07-21T13:53:50;21.15;;;19.85;;
8476;SDS011;4275;42.854;23.222;2022-07-21T13:56:18;21.40;;;20.10;;
8476;SDS011;4275;42.854;23.222;2022-07-21T13:58:46;21.50;;;20.10;;
8476;SDS011;4275;42.854;23.222;2022-07-21T14:01:13;21.77;;;20.38;;
8476;SDS011;4275;42.854;23.222;2022-07-21T14:03:41;21.40;;;20.10;;
8476;SDS011;4275;42.854;23.222;2022-07-21T14:06:08;20.42;;;19.05;;
8476;SDS011;4275;42.854;23.222;2022-07-21T14:08:37;21.05;;;19.75;;
8476;SDS011;4275;42.854;23.222;2022-07-21T14:11:05;21.42;;;20.13;;
8476;SDS011;4275;42.854;23.222;2022-07-21T14:13:33;22.63;;;21.23;;
8476;SDS011;4275;42.854;23.222;2022-07-21T14:16:00;21.67;;;20.27;;
8476;SDS011;4275;42.854;23.222;2022-07-21T14:18:28;25.42;;;23.83;;
8476;SDS011;4275;42.854;23.222;2022-07-21T14:20:55;21.73;;;20.42;;
8476;SDS011;4275;42.854;23.222;2022-07-21T14:23:22;24.15;;;22.65;;
8476;SDS011;4275;42.854;23.222;2022-07-21T14:25:51;23.60;;;22.10;;
8476;SDS011;4275;42.854;23.222;2022-07-21T14:28:19;21.52;;;20.15;;
8476;SDS011;4275;42.854;23.222;2022-07-21T14:30:47;21.55;;;20.15;;
8476;SDS011;4275;42.854;23.222;2022-07-21T14:33:14;21.30;;;20.00;;
8476;SDS011;4275;42.854;23.222;2022-07-21T14:35:41;22.02;;;20.63;;
8476;SDS011;4275;42.854;23.222;2022-07-21T14:38:08;21.25;;;19.95;;
8476;SDS011;4275;42.854;23.222;2022-07-21T14:40:36;21.02;;;19.73;;
8476;SDS011;4275;42.854;23.222;2022-07-21T14:43:06;20.42;;;19.13;;
8476;SDS011;4275;42.854;23.222;2022-07-21T14:45:33;21.50;;;20.10;;
8476;SDS011;4275;42.854;23.222;2022-07-21T14:48:00;22.48;;;20.98;;
8476;SDS011;4275;42.854;23.222;2022-07-21T14:50:28;20.98;;;19.67;;
8476;SDS011;4275;42.854;23.222;2022-07-21T14:52:55;20.73;;;19.42;;
8476;SDS011;4275;42.854;23.222;2022-07-21T14:55:24;21.45;;;20.13;;
8476;SDS011;4275;42.854;23.222;2022-07-21T14:57:53;22.95;;;21.45;;
8476;SDS011;4275;42.854;23.222;2022-07-21T15:00:22;21.80;;;20.40;;
8476;SDS011;4275;42.854;23.222;2022-07-21T15:02:50;22.42;;;21.02;;
8476;SDS011;4275;42.854;23.222;2022-07-21T15:05:17;21.90;;;20.50;;
8476;SDS011;4275;42.854;23.222;2022-07-21T15:07:44;22.60;;;21.13;;